Time;durP1;ratioP1;P1;durP2;ratioP2;P2;SDS_P1;SDS_P2;PMS_P1;PMS_P2;Temp;Humidity;BMP_temperature;BMP_pressure;BME280_temperature;BME280_humidity;BME280_pressure;Samples;Min_cycle;Max_cycle;Signal;HPM_P1;HPM_P2
2022/01/18 00:02:41;;;;;;;5.35;0.95;;;;;;;5.34;97.99;103373.91;15288086;19;20090;-67
2022/01/18 00:07:44;;;;;;;13.93;1.23;;;;;;;5.29;98.29;103378.75;15287223;19;20014;-67
2022/01/18 00:13:08;;;;;;;9.40;1.15;;;;;;;5.32;98.30;103385.88;15287922;19;20023;-67
2022/01/18 00:18:13;;;;;;;5.78;0.90;;;;;;;5.35;98.37;103385.22;15286630;19;20074;-68
2022/01/18 00:23:14;;;;;;;7.85;1.27;;;;;;;5.38;98.66;103388.06;15286341;19;20090;-67
2022/01/18 00:28:17;;;;;;;8.63;1.30;;;;;;;5.37;98.49;103407.03;15286037;19;20010;-67
2022/01/18 00:33:47;;;;;;;11.48;1.30;;;;;;;5.24;98.09;103402.53;15288256;19;20034;-68
2022/01/18 00:38:49;;;;;;;6.40;1.10;;;;;;;5.02;98.26;103405.09;15285751;19;20022;-68
2022/01/18 00:43:51;;;;;;;9.18;0.95;;;;;;;4.87;98.67;103418.63;15286592;19;20078;-67
2022/01/18 00:48:55;;;;;;;7.55;1.52;;;;;;;4.75;99.28;103423.69;15285363;19;20012;-67
2022/01/18 00:53:59;;;;;;;7.38;1.13;;;;;;;4.65;99.64;103420.22;15287842;19;20015;-67
2022/01/18 00:59:00;;;;;;;11.80;1.33;;;;;;;4.48;99.58;103406.75;15284630;19;20014;-67
2022/01/18 01:04:03;;;;;;;3.63;1.17;;;;;;;4.46;100.00;103408.31;15283724;19;20448;-67
2022/01/18 01:09:08;;;;;;;6.35;1.10;;;;;;;4.31;100.00;103428.69;15283213;19;20027;-67
2022/01/18 01:14:15;;;;;;;9.65;1.08;;;;;;;4.21;100.00;103436.44;15284202;19;20078;-68
2022/01/18 01:19:41;;;;;;;4.63;0.80;;;;;;;4.14;100.00;103431.50;15280920;19;20085;-67
2022/01/18 01:35:39;;;;;;;6.90;1.67;;;;;;;4.07;100.00;103433.56;15177060;19;2004239;-67
2022/01/18 01:46:02;;;;;;;5.57;1.33;;;;;;;4.18;100.00;103438.78;15282863;19;20025;-68
2022/01/18 01:51:05;;;;;;;11.02;1.88;;;;;;;4.25;100.00;103433.34;15279042;19;20010;-67
2022/01/18 01:56:07;;;;;;;13.30;1.67;;;;;;;4.25;100.00;103429.06;15283361;19;20369;-67
2022/01/18 02:01:08;;;;;;;12.30;1.70;;;;;;;4.30;100.00;103436.34;15279230;19;20105;-67
2022/01/18 02:06:10;;;;;;;7.38;1.23;;;;;;;4.38;100.00;103425.84;15281946;19;20014;-67
2022/01/18 02:11:13;;;;;;;9.07;1.45;;;;;;;4.39;100.00;103434.50;15278855;19;20035;-67
2022/01/18 02:21:45;;;;;;;11.57;1.52;;;;;;;4.35;100.00;103435.03;15280472;19;20432;-67
2022/01/18 02:21:46;;;;;;;10.55;1.60;;;;;;;4.33;100.00;103423.63;15277646;19;20014;-67
2022/01/18 02:26:48;;;;;;;9.43;1.52;;;;;;;4.31;100.00;103412.19;15279952;19;20014;-68
2022/01/18 02:31:51;;;;;;;11.35;1.90;;;;;;;4.31;100.00;103418.31;15280854;19;20010;-67
2022/01/18 02:36:55;;;;;;;8.30;1.48;;;;;;;4.35;100.00;103409.97;15279245;19;20667;-68
2022/01/18 02:42:00;;;;;;;17.45;1.88;;;;;;;4.37;100.00;103407.53;15277304;19;20814;-68
2022/01/18 02:47:03;;;;;;;15.00;2.90;;;;;;;4.41;100.00;103414.78;15277815;19;20086;-67
2022/01/18 02:52:06;;;;;;;11.13;2.00;;;;;;;4.36;100.00;103406.63;15277441;19;20010;-67
2022/01/18 02:57:12;;;;;;;15.98;2.03;;;;;;;4.29;100.00;103398.19;15276635;19;20018;-68
2022/01/18 03:07:55;;;;;;;19.70;3.57;;;;;;;4.13;100.00;103415.06;15278610;19;20478;-68
2022/01/18 03:12:57;;;;;;;16.05;2.00;;;;;;;4.11;100.00;103414.00;15275110;19;20575;-68
2022/01/18 03:18:00;;;;;;;18.38;2.65;;;;;;;4.21;100.00;103410.50;15275006;19;20014;-68
2022/01/18 03:23:06;;;;;;;15.55;2.10;;;;;;;4.33;100.00;103406.34;15271506;19;20089;-67
2022/01/18 03:28:08;;;;;;;18.77;2.65;;;;;;;4.52;100.00;103403.63;15274337;19;20011;-68
2022/01/18 03:33:13;;;;;;;17.20;1.80;;;;;;;4.63;100.00;103414.91;15274209;19;20021;-67
2022/01/18 03:38:16;;;;;;;22.50;2.60;;;;;;;4.67;100.00;103419.56;15272307;19;20501;-67
2022/01/18 03:43:18;;;;;;;14.40;2.25;;;;;;;4.76;100.00;103428.13;15269517;19;20015;-67
2022/01/18 03:48:29;;;;;;;20.10;2.47;;;;;;;4.80;100.00;103434.47;15270040;19;20078;-67
2022/01/18 03:53:31;;;;;;;20.98;2.38;;;;;;;4.81;100.00;103448.38;15273369;19;20528;-68
2022/01/18 03:58:34;;;;;;;23.95;2.03;;;;;;;4.85;100.00;103446.16;15273463;19;20027;-68
2022/01/18 04:03:35;;;;;;;28.70;2.58;;;;;;;4.78;100.00;103441.22;15271447;19;20015;-68
2022/01/18 04:08:37;;;;;;;25.70;2.95;;;;;;;4.76;100.00;103432.41;15271764;19;20534;-68
2022/01/18 04:13:39;;;;;;;29.65;3.35;;;;;;;4.74;100.00;103447.88;15271385;19;20081;-68
2022/01/18 04:29:11;;;;;;;21.67;2.92;;;;;;;4.46;100.00;103452.41;15268976;19;20368;-67
2022/01/18 04:34:13;;;;;;;20.42;3.13;;;;;;;4.38;100.00;103461.22;15270060;19;20025;-67
2022/01/18 04:39:16;;;;;;;22.92;3.38;;;;;;;4.40;100.00;103460.59;15281931;19;20349;-67
2022/01/18 04:49:38;;;;;;;25.05;4.22;;;;;;;4.52;100.00;103467.56;15283033;19;20022;-67
2022/01/18 04:54:43;;;;;;;29.23;3.80;;;;;;;4.50;100.00;103462.25;15285135;19;20044;-68
2022/01/18 04:59:45;;;;;;;24.60;3.58;;;;;;;4.53;100.00;103466.81;15282365;19;20082;-68
2022/01/18 05:04:46;;;;;;;32.83;4.88;;;;;;;4.60;100.00;103479.53;15280477;19;20077;-67
2022/01/18 05:09:50;;;;;;;33.17;4.63;;;;;;;4.67;100.00;103491.31;15282698;19;20484;-67
2022/01/18 05:14:53;;;;;;;33.65;5.43;;;;;;;4.65;100.00;103480.81;15283436;19;20091;-67
2022/01/18 05:20:24;;;;;;;23.90;4.32;;;;;;;4.73;100.00;103499.66;15278852;19;20015;-67
2022/01/18 05:25:19;;;;;;;27.92;4.38;;;;;;;4.74;100.00;103504.03;15176742;19;2004418;-68
2022/01/18 05:30:21;;;;;;;26.98;5.28;;;;;;;4.72;100.00;103510.81;15281218;19;20011;-68
2022/01/18 05:35:23;;;;;;;24.48;4.47;;;;;;;4.79;100.00;103510.56;15282931;19;20522;-68
2022/01/18 05:40:26;;;;;;;24.05;3.90;;;;;;;4.83;100.00;103501.31;15278564;19;20002;-67
2022/01/18 05:45:27;;;;;;;23.70;3.13;;;;;;;4.85;100.00;103517.94;15282347;19;20558;-67
2022/01/18 05:50:29;;;;;;;21.48;3.33;;;;;;;4.91;100.00;103519.38;15279724;19;20018;-68
2022/01/18 05:55:31;;;;;;;25.73;3.92;;;;;;;4.89;100.00;103527.81;15280947;19;20021;-67
2022/01/18 06:00:33;;;;;;;26.10;2.90;;;;;;;4.92;100.00;103535.84;15277772;19;20716;-66
2022/01/18 06:10:55;;;;;;;23.30;3.30;;;;;;;4.98;100.00;103528.56;15276187;19;20016;-68
2022/01/18 06:15:57;;;;;;;26.98;2.85;;;;;;;4.95;100.00;103536.09;15279658;19;20031;-67
2022/01/18 06:20:59;;;;;;;22.25;2.00;;;;;;;4.96;100.00;103540.53;15277257;19;20694;-68
2022/01/18 06:26:03;;;;;;;20.88;2.55;;;;;;;4.98;100.00;103549.34;15280019;19;20074;-68
2022/01/18 06:31:04;;;;;;;19.08;2.80;;;;;;;4.99;100.00;103548.56;15277516;19;20019;-68
2022/01/18 06:36:06;;;;;;;24.00;2.60;;;;;;;5.00;100.00;103542.59;15278373;19;20494;-68
2022/01/18 06:41:08;;;;;;;22.05;2.28;;;;;;;4.99;100.00;103540.78;15274602;19;20730;-68
2022/01/18 06:46:10;;;;;;;19.52;2.50;;;;;;;5.00;100.00;103529.63;15277047;19;20423;-68
2022/01/18 06:51:12;;;;;;;10.80;1.90;;;;;;;5.03;100.00;103555.84;15275561;19;20014;-69
2022/01/18 06:56:19;;;;;;;17.25;2.15;;;;;;;5.02;100.00;103554.03;15274545;19;20081;-68
2022/01/18 07:01:22;;;;;;;26.92;2.30;;;;;;;5.08;100.00;103559.72;15271577;19;20014;-67
2022/01/18 07:06:24;;;;;;;24.25;2.80;;;;;;;5.08;100.00;103558.84;15275385;19;20010;-69
2022/01/18 07:11:26;;;;;;;9.88;1.50;;;;;;;5.07;100.00;103564.78;15270434;19;20104;-68
2022/01/18 07:16:27;;;;;;;16.75;2.20;;;;;;;5.06;100.00;103571.69;15274006;19;20897;-67
2022/01/18 07:21:29;;;;;;;13.40;2.45;;;;;;;5.01;100.00;103567.78;15274462;19;20479;-69
2022/01/18 07:26:32;;;;;;;13.57;2.55;;;;;;;4.97;100.00;103563.13;15277017;19;20018;-70
2022/01/18 07:31:34;;;;;;;23.27;3.10;;;;;;;4.95;100.00;103568.19;15272923;19;20119;-67
2022/01/18 07:36:36;;;;;;;14.77;2.00;;;;;;;4.93;100.00;103574.03;15277779;19;20018;-67
2022/01/18 07:41:38;;;;;;;11.63;1.75;;;;;;;4.96;100.00;103577.78;15271074;19;20011;-67
2022/01/18 07:46:39;;;;;;;19.10;3.25;;;;;;;4.97;100.00;103586.50;15272329;19;20014;-67
2022/01/18 07:51:41;;;;;;;22.10;2.42;;;;;;;4.98;100.00;103593.50;15267733;19;20422;-67
2022/01/18 07:56:44;;;;;;;14.43;2.55;;;;;;;4.93;100.00;103587.00;15268571;19;20039;-68
2022/01/18 08:01:47;;;;;;;18.05;3.10;;;;;;;4.95;100.00;103582.84;15266528;19;20011;-66
2022/01/18 08:06:49;;;;;;;13.80;2.33;;;;;;;4.95;100.00;103582.84;15271639;19;20019;-68
2022/01/18 08:11:52;;;;;;;14.73;1.95;;;;;;;4.97;100.00;103586.50;15278126;19;20011;-67
2022/01/18 08:17:04;;;;;;;11.57;1.83;;;;;;;5.00;100.00;103597.16;15285555;19;20031;-68
2022/01/18 08:22:07;;;;;;;16.52;2.65;;;;;;;5.05;100.00;103590.63;15277572;19;20019;-68
2022/01/18 08:27:09;;;;;;;19.48;2.97;;;;;;;5.06;100.00;103600.25;15291200;19;20484;-67
2022/01/18 08:32:11;;;;;;;17.75;2.05;;;;;;;5.03;100.00;103601.66;15290837;19;20006;-68
2022/01/18 08:37:12;;;;;;;12.23;1.95;;;;;;;5.06;99.84;103607.13;15288630;19;20018;-68
2022/01/18 08:42:14;;;;;;;23.92;2.38;;;;;;;5.15;99.52;103602.72;15284603;19;20144;-68
2022/01/18 08:47:17;;;;;;;18.77;2.72;;;;;;;5.18;99.67;103607.25;15286256;19;20086;-68
2022/01/18 08:52:20;;;;;;;17.35;2.50;;;;;;;5.18;99.21;103607.25;15280434;19;20028;-68
2022/01/18 08:57:22;;;;;;;17.55;3.45;;;;;;;5.22;98.43;103617.13;15283250;19;20018;-68
2022/01/18 09:02:23;;;;;;;15.30;2.85;;;;;;;5.26;97.57;103621.81;15282464;19;20021;-67
2022/01/18 09:07:25;;;;;;;14.43;2.42;;;;;;;5.22;97.39;103620.63;15283073;19;20038;-67
2022/01/18 09:12:27;;;;;;;17.35;3.03;;;;;;;5.30;96.37;103627.41;15282392;19;20709;-68
2022/01/18 09:17:28;;;;;;;16.60;3.15;;;;;;;5.25;96.17;103630.38;15283236;19;20014;-67
2022/01/18 09:22:30;;;;;;;22.35;3.40;;;;;;;5.27;96.22;103629.72;15278836;19;20031;-68
2022/01/18 09:27:32;;;;;;;13.43;3.88;;;;;;;5.33;96.07;103634.53;15281723;19;20499;-67
2022/01/18 09:32:34;;;;;;;10.45;1.75;;;;;;;5.31;96.20;103641.28;15279701;19;20094;-68
2022/01/18 09:37:36;;;;;;;21.25;2.65;;;;;;;5.35;96.71;103639.88;15281553;19;20029;-67
2022/01/18 09:42:40;;;;;;;21.92;2.55;;;;;;;5.37;97.25;103641.78;15278410;19;20018;-67
2022/01/18 09:47:46;;;;;;;15.93;2.60;;;;;;;5.36;97.26;103645.19;15281432;19;20035;-67
2022/01/18 09:52:53;;;;;;;15.48;2.85;;;;;;;5.45;97.50;103660.63;15279050;19;20031;-67
2022/01/18 09:57:56;;;;;;;20.02;2.47;;;;;;;5.40;97.38;103652.44;15277411;19;20022;-69
2022/01/18 10:02:57;;;;;;;11.27;1.98;;;;;;;5.40;97.56;103655.03;15277611;19;20357;-71
2022/01/18 10:08:15;;;;;;;12.55;2.20;;;;;;;5.40;97.74;103655.03;15262579;19;20048;-72
2022/01/18 10:13:27;;;;;;;11.40;2.00;;;;;;;5.49;97.47;103653.25;15277127;19;20010;-71
2022/01/18 10:18:35;;;;;;;13.77;2.75;;;;;;;5.49;97.44;103650.66;15274263;19;20011;-71
2022/01/18 10:23:37;;;;;;;7.63;1.73;;;;;;;5.57;97.17;103652.94;15264683;19;20027;-71
2022/01/18 10:28:39;;;;;;;10.35;2.20;;;;;;;5.53;96.72;103656.09;15274196;19;20078;-71
2022/01/18 10:33:56;;;;;;;10.38;2.30;;;;;;;5.53;96.90;103646.59;15272599;19;20014;-71
2022/01/18 10:39:02;;;;;;;6.18;1.58;;;;;;;5.54;96.02;103660.50;15272787;19;20014;-71
2022/01/18 10:44:23;;;;;;;7.22;1.17;;;;;;;5.46;94.66;103653.00;15264016;19;20408;-70
2022/01/18 10:49:40;;;;;;;6.28;1.13;;;;;;;5.40;94.33;103647.25;15273545;19;20035;-71
2022/01/18 10:54:56;;;;;;;4.20;1.15;;;;;;;5.39;94.59;103650.66;15275636;19;20478;-71
2022/01/18 11:00:06;;;;;;;9.63;1.60;;;;;;;5.40;94.70;103649.84;15272723;19;20015;-71
2022/01/18 11:05:26;;;;;;;9.95;2.20;;;;;;;5.42;94.76;103652.56;15270188;19;20083;-70
2022/01/18 11:10:31;;;;;;;10.23;2.22;;;;;;;5.32;95.43;103641.41;15273455;19;20477;-71
2022/01/18 11:15:53;;;;;;;9.35;2.97;;;;;;;5.39;95.70;103645.44;15274526;19;20094;-70
2022/01/18 11:20:56;;;;;;;15.55;3.95;;;;;;;5.45;95.79;103645.97;15269265;19;20018;-70
2022/01/18 11:25:59;;;;;;;11.65;3.35;;;;;;;5.45;95.55;103640.75;15270829;19;20027;-67
2022/01/18 11:31:00;;;;;;;16.95;4.90;;;;;;;5.44;95.19;103638.03;15273156;19;20015;-67
2022/01/18 11:36:10;;;;;;;11.43;2.22;;;;;;;5.40;95.04;103630.75;15271651;19;20014;-67
2022/01/18 11:41:22;;;;;;;5.93;2.20;;;;;;;5.42;94.74;103630.13;15270012;19;20024;-66
2022/01/18 11:46:35;;;;;;;11.73;2.85;;;;;;;5.46;94.49;103616.59;15269499;19;20014;-66
2022/01/18 11:51:45;;;;;;;4.43;1.60;;;;;;;5.43;94.79;103625.81;15264978;19;20014;-66
2022/01/18 11:56:47;;;;;;;8.00;1.70;;;;;;;5.42;95.35;103609.31;15266653;19;20085;-66
2022/01/18 12:01:57;;;;;;;4.22;1.60;;;;;;;5.55;95.35;103602.53;15268072;19;20449;-69
2022/01/18 12:06:59;;;;;;;3.63;1.33;;;;;;;5.70;94.80;103602.91;15270618;19;20018;-68
2022/01/18 12:12:01;;;;;;;5.70;1.60;;;;;;;5.77;94.08;103598.31;15269934;19;20086;-67
2022/01/18 12:17:14;;;;;;;7.40;1.90;;;;;;;5.68;94.64;103602.78;15267049;19;20026;-68
2022/01/18 12:22:16;;;;;;;10.25;2.78;;;;;;;5.82;94.08;103599.63;15270294;19;20022;-67
2022/01/18 12:27:29;;;;;;;6.03;1.90;;;;;;;5.92;94.11;103600.38;15268056;19;20011;-69
2022/01/18 12:32:51;;;;;;;7.70;1.65;;;;;;;5.93;93.12;103597.88;15269462;19;20081;-70
2022/01/18 12:37:53;;;;;;;4.65;1.58;;;;;;;5.91;93.07;103588.13;15261982;19;20081;-70
2022/01/18 12:48:05;;;;;;;5.90;1.75;;;;;;;5.94;92.94;103575.38;15259341;19;20042;-70
2022/01/18 12:53:11;;;;;;;4.93;1.45;;;;;;;5.98;91.63;103578.38;15264919;19;20022;-71
2022/01/18 12:58:20;;;;;;;7.85;1.70;;;;;;;5.96;91.04;103568.59;15272575;19;20015;-70
2022/01/18 13:03:36;;;;;;;4.03;1.42;;;;;;;5.90;91.57;103568.09;15280168;19;20010;-69
2022/01/18 13:08:40;;;;;;;7.05;2.10;;;;;;;5.90;91.33;103560.28;15280581;19;20019;-69
2022/01/18 13:13:49;;;;;;;4.07;1.67;;;;;;;5.92;91.85;103550.94;15281826;19;20010;-69
2022/01/18 13:24:43;;;;;;;9.20;1.80;;;;;;;5.90;91.01;103562.91;15278388;19;20724;-69
2022/01/18 13:29:42;;;;;;;7.18;2.40;;;;;;;5.91;91.74;103559.53;15274826;19;20006;-69
2022/01/18 13:34:48;;;;;;;10.70;2.05;;;;;;;5.88;92.26;103559.28;15278579;19;20033;-69
2022/01/18 13:39:52;;;;;;;7.32;1.60;;;;;;;5.88;91.30;103559.28;15275209;19;20514;-65
2022/01/18 13:45:18;;;;;;;7.32;1.50;;;;;;;5.87;91.27;103549.66;15275166;19;20010;-65
2022/01/18 13:50:42;;;;;;;5.07;1.45;;;;;;;5.86;91.42;103546.16;15174059;19;2004426;-66
2022/01/18 13:56:09;;;;;;;12.32;2.15;;;;;;;5.83;90.83;103539.00;15277220;19;20031;-66
2022/01/18 14:01:28;;;;;;;3.97;1.30;;;;;;;5.83;91.24;103528.59;15275966;19;20015;-65
2022/01/18 14:06:33;;;;;;;5.20;1.52;;;;;;;5.76;91.93;103528.88;15274362;19;20353;-67
2022/01/18 14:11:36;;;;;;;9.55;1.60;;;;;;;5.75;92.23;103520.97;15273110;19;20019;-67
2022/01/18 14:16:55;;;;;;;6.63;1.40;;;;;;;5.82;92.11;103519.00;15270685;19;20018;-67
2022/01/18 14:22:03;;;;;;;4.95;1.50;;;;;;;5.73;92.44;103515.63;15269637;19;20022;-67
2022/01/18 14:27:08;;;;;;;7.65;1.77;;;;;;;5.69;92.15;103515.28;15266578;19;20035;-68
2022/01/18 14:32:12;;;;;;;10.52;1.42;;;;;;;5.78;92.62;103506.53;15275477;19;20404;-68
2022/01/18 14:37:14;;;;;;;6.75;2.03;;;;;;;5.73;92.28;103497.44;15273744;19;20021;-68
2022/01/18 14:42:16;;;;;;;6.55;1.90;;;;;;;5.66;92.14;103508.16;15276467;19;20038;-67
2022/01/18 14:47:26;;;;;;;10.18;2.38;;;;;;;5.66;91.63;103511.66;15273440;19;20429;-68
2022/01/18 14:52:30;;;;;;;8.52;1.70;;;;;;;5.64;92.10;103508.03;15275596;19;20046;-68
2022/01/18 14:57:32;;;;;;;7.75;1.70;;;;;;;5.78;91.28;103501.34;15274860;19;20095;-67
2022/01/18 15:02:34;;;;;;;8.55;1.73;;;;;;;5.61;92.10;103493.88;15275570;19;20569;-67
2022/01/18 15:07:41;;;;;;;10.98;2.20;;;;;;;5.66;92.15;103496.06;15274351;19;20014;-67
2022/01/18 15:12:46;;;;;;;9.27;1.95;;;;;;;5.62;92.00;103493.09;15273469;19;20049;-69
2022/01/18 15:17:49;;;;;;;9.40;2.38;;;;;;;5.54;92.35;103488.94;15271355;19;20015;-69
2022/01/18 15:22:51;;;;;;;6.30;1.70;;;;;;;5.59;92.25;103488.53;15271259;19;20014;-69
2022/01/18 15:28:13;;;;;;;8.73;1.90;;;;;;;5.53;92.88;103484.56;15271953;19;20408;-69
2022/01/18 15:33:15;;;;;;;6.78;2.25;;;;;;;5.52;92.32;103477.53;15271156;19;20411;-69
2022/01/18 15:38:17;;;;;;;10.55;2.50;;;;;;;5.44;92.35;103488.19;15270079;19;20022;-69
2022/01/18 15:43:20;;;;;;;12.05;2.08;;;;;;;5.52;92.20;103480.13;15269874;19;20793;-69
2022/01/18 15:48:22;;;;;;;7.00;2.03;;;;;;;5.55;92.25;103480.38;15271473;19;20015;-70
2022/01/18 15:53:24;;;;;;;8.48;2.13;;;;;;;5.44;92.72;103483.00;15271025;19;20503;-70
2022/01/18 15:58:25;;;;;;;15.32;2.25;;;;;;;5.45;92.10;103484.84;15268764;19;20082;-70
2022/01/18 16:03:28;;;;;;;16.27;2.70;;;;;;;5.41;92.72;103482.75;15269204;19;20078;-70
2022/01/18 16:08:30;;;;;;;7.90;2.13;;;;;;;5.41;92.91;103480.16;15264236;19;20746;-70
2022/01/18 16:13:31;;;;;;;5.88;2.03;;;;;;;5.34;93.10;103477.84;15269229;19;20017;-70
2022/01/18 16:18:33;;;;;;;10.90;1.98;;;;;;;5.35;92.36;103476.16;15270031;19;20729;-70
2022/01/18 16:23:37;;;;;;;10.10;2.00;;;;;;;5.26;92.84;103477.22;15267644;19;20014;-71
2022/01/18 16:28:40;;;;;;;11.05;2.75;;;;;;;5.26;92.44;103478.91;15269433;19;20403;-69
2022/01/18 16:33:53;;;;;;;9.60;2.50;;;;;;;5.20;92.62;103488.81;15280061;19;20014;-70
2022/01/18 16:38:54;;;;;;;8.90;2.35;;;;;;;5.22;92.61;103489.84;15269349;19;20017;-71
2022/01/18 16:43:57;;;;;;;6.72;3.13;;;;;;;5.12;92.81;103481.28;15267837;19;20683;-70
2022/01/18 16:48:59;;;;;;;8.20;2.67;;;;;;;5.10;93.07;103482.88;15279608;19;20018;-70
2022/01/18 16:54:01;;;;;;;9.63;2.88;;;;;;;5.04;93.46;103484.91;15283652;19;20078;-71
2022/01/18 16:59:02;;;;;;;11.43;3.63;;;;;;;4.98;93.83;103478.31;15279333;19;20751;-71
2022/01/18 17:04:06;;;;;;;10.00;2.67;;;;;;;4.90;93.56;103460.41;15278844;19;20034;-70
2022/01/18 17:09:08;;;;;;;8.65;2.80;;;;;;;4.87;93.87;103459.25;15277171;19;21546;-70
2022/01/18 17:14:10;;;;;;;11.90;3.45;;;;;;;4.80;94.30;103467.31;15279192;19;20015;-69
2022/01/18 17:19:11;;;;;;;10.88;3.25;;;;;;;4.78;94.35;103462.91;15276804;19;20082;-68
2022/01/18 17:24:14;;;;;;;6.95;2.97;;;;;;;4.73;94.43;103461.63;15275226;19;20018;-69
2022/01/18 17:29:16;;;;;;;15.13;3.38;;;;;;;4.66;94.44;103463.56;15270025;19;20027;-68
2022/01/18 17:34:18;;;;;;;17.40;4.13;;;;;;;4.62;94.74;103452.00;15274479;19;20035;-69
2022/01/18 17:39:25;;;;;;;11.43;3.75;;;;;;;4.62;94.67;103461.50;15273762;19;20086;-69
2022/01/18 17:44:27;;;;;;;12.50;3.80;;;;;;;4.60;94.78;103458.78;15276422;19;20015;-69
2022/01/18 17:49:29;;;;;;;12.90;5.88;;;;;;;4.55;94.99;103445.41;15276738;19;20021;-68
2022/01/18 17:54:31;;;;;;;14.10;4.43;;;;;;;4.51;95.34;103437.25;15274024;19;20007;-68
2022/01/18 17:59:33;;;;;;;14.50;4.65;;;;;;;4.49;95.54;103450.09;15275146;19;20023;-68
2022/01/18 18:04:36;;;;;;;15.75;5.32;;;;;;;4.51;95.47;103437.25;15278241;19;20014;-67
2022/01/18 18:09:47;;;;;;;18.05;5.07;;;;;;;4.50;95.65;103440.59;15276168;19;20033;-69
2022/01/18 18:14:49;;;;;;;13.43;4.20;;;;;;;4.46;95.88;103456.69;15280659;19;20030;-68
2022/01/18 18:19:51;;;;;;;13.13;5.03;;;;;;;4.47;96.10;103440.34;15273537;19;20543;-68
2022/01/18 18:24:52;;;;;;;13.93;5.20;;;;;;;4.35;96.45;103425.53;15265432;19;20412;-67
2022/01/18 18:29:54;;;;;;;17.20;5.72;;;;;;;4.36;96.46;103406.63;15271051;19;20014;-68
2022/01/18 18:34:56;;;;;;;11.38;5.35;;;;;;;4.31;96.58;103376.81;15277260;19;20098;-69
2022/01/18 18:40:05;;;;;;;18.70;7.57;;;;;;;4.23;96.65;103377.81;15277813;19;20082;-68
2022/01/18 18:45:07;;;;;;;11.50;5.37;;;;;;;4.14;96.61;103387.41;15276668;19;20769;-68
2022/01/18 18:50:09;;;;;;;17.45;5.00;;;;;;;4.04;97.57;103409.09;15274430;19;20021;-68
2022/01/18 18:55:15;;;;;;;19.35;5.97;;;;;;;4.03;97.49;103428.00;15276630;19;20007;-68
2022/01/18 19:00:45;;;;;;;26.80;8.27;;;;;;;4.04;97.57;103442.78;15277262;19;20018;-66
2022/01/18 19:05:55;;;;;;;16.52;6.63;;;;;;;4.06;97.74;103426.56;15275554;19;20014;-68
2022/01/18 19:10:59;;;;;;;15.63;5.35;;;;;;;4.08;97.03;103421.50;15274556;19;20538;-67
2022/01/18 19:16:03;;;;;;;18.05;6.55;;;;;;;4.03;97.42;103431.50;15277287;19;20090;-67
2022/01/18 19:21:08;;;;;;;13.30;4.75;;;;;;;4.05;97.62;103427.38;15275171;19;20014;-67
2022/01/18 19:26:10;;;;;;;17.42;5.30;;;;;;;4.10;97.54;103424.22;15273255;19;20018;-68
2022/01/18 19:31:13;;;;;;;18.45;6.10;;;;;;;4.14;96.97;103418.53;15273685;19;20090;-67
2022/01/18 19:36:14;;;;;;;18.88;5.68;;;;;;;4.10;97.08;103411.28;15275784;19;20042;-68
2022/01/18 19:41:19;;;;;;;16.77;6.82;;;;;;;4.09;96.95;103410.38;15272509;19;20022;-67
2022/01/18 19:46:21;;;;;;;16.75;6.30;;;;;;;4.12;97.09;103401.97;15273184;19;20028;-67
2022/01/18 19:51:23;;;;;;;20.08;5.45;;;;;;;4.14;97.07;103402.97;15273932;19;20015;-68
2022/01/18 19:56:25;;;;;;;18.85;5.05;;;;;;;4.06;97.17;103405.81;15275950;19;20046;-68
2022/01/18 20:01:27;;;;;;;13.65;4.68;;;;;;;4.07;97.28;103420.63;15271395;19;20031;-66
2022/01/18 20:06:29;;;;;;;14.15;5.57;;;;;;;4.11;96.96;103415.69;15276822;19;20018;-67
2022/01/18 20:11:38;;;;;;;17.85;5.68;;;;;;;4.09;96.69;103410.38;15284504;19;20035;-67
2022/01/18 20:16:40;;;;;;;18.77;5.75;;;;;;;4.04;96.36;103397.00;15290360;19;20416;-68
2022/01/18 20:21:41;;;;;;;17.08;5.68;;;;;;;4.05;95.95;103397.91;15286513;19;20018;-68
2022/01/18 20:26:45;;;;;;;14.23;5.60;;;;;;;4.10;95.84;103390.53;15285707;19;20093;-67
2022/01/18 20:31:47;;;;;;;15.55;5.57;;;;;;;4.05;95.79;103383.28;15278424;19;20015;-68
2022/01/18 20:36:49;;;;;;;20.33;5.80;;;;;;;4.10;95.76;103390.53;15286523;19;20034;-67
2022/01/18 20:47:11;;;;;;;19.23;6.45;;;;;;;4.07;95.94;103392.09;15279343;19;20022;-68
2022/01/18 20:52:12;;;;;;;14.98;5.55;;;;;;;4.03;96.15;103389.09;15285692;19;20027;-68
2022/01/18 20:57:15;;;;;;;19.77;6.60;;;;;;;4.06;95.99;103379.00;15286073;19;20376;-68
2022/01/18 21:02:17;;;;;;;16.65;6.63;;;;;;;4.07;95.66;103353.19;15283036;19;20048;-67
2022/01/18 21:07:21;;;;;;;15.95;6.50;;;;;;;4.02;95.53;103338.00;15278500;19;20518;-68
2022/01/18 21:12:23;;;;;;;14.15;5.50;;;;;;;3.96;95.31;103328.03;15283238;19;20022;-68
2022/01/18 21:17:26;;;;;;;19.67;6.60;;;;;;;3.82;95.67;103321.69;15285130;19;20021;-67
2022/01/18 21:22:29;;;;;;;18.45;6.78;;;;;;;3.70;96.05;103323.22;15283813;19;20904;-68
2022/01/18 21:27:31;;;;;;;17.40;5.97;;;;;;;3.65;96.08;103316.75;15280690;19;20094;-68
2022/01/18 21:32:33;;;;;;;15.80;6.10;;;;;;;3.53;96.16;103301.06;15282357;19;20010;-67
2022/01/18 21:37:35;;;;;;;20.67;6.30;;;;;;;3.62;96.12;103306.09;15282756;19;20031;-68
2022/01/18 21:42:37;;;;;;;20.52;7.35;;;;;;;3.55;96.37;103294.31;15285333;19;20018;-67
2022/01/18 21:47:38;;;;;;;23.73;7.78;;;;;;;3.56;96.81;103295.22;15279622;19;20035;-68
2022/01/18 21:52:41;;;;;;;19.73;7.50;;;;;;;3.50;97.38;103285.25;15283017;19;20033;-69
2022/01/18 21:57:43;;;;;;;25.30;7.68;;;;;;;3.60;96.99;103279.16;15283206;19;20035;-68
2022/01/18 22:02:45;;;;;;;21.73;7.63;;;;;;;3.59;96.89;103274.75;15282878;19;20434;-69
2022/01/18 22:07:48;;;;;;;24.73;7.55;;;;;;;3.59;97.03;103267.91;15277025;19;20025;-68
2022/01/18 22:12:50;;;;;;;24.63;7.53;;;;;;;3.62;97.23;103270.75;15281306;19;20022;-68
2022/01/18 22:17:51;;;;;;;22.77;8.40;;;;;;;3.56;97.11;103259.88;15280329;19;20082;-68
2022/01/18 22:22:53;;;;;;;29.73;8.75;;;;;;;3.57;97.33;103251.31;15279276;19;20457;-68
2022/01/18 22:27:56;;;;;;;22.70;8.07;;;;;;;3.60;97.01;103251.56;15278249;19;20025;-69
2022/01/18 22:32:58;;;;;;;29.40;7.57;;;;;;;3.59;97.02;103242.00;15278633;19;20106;-68
2022/01/18 22:38:00;;;;;;;24.83;8.93;;;;;;;3.58;97.35;103236.69;15278058;19;20082;-68
2022/01/18 22:43:02;;;;;;;30.13;9.13;;;;;;;3.52;97.42;103224.09;15278416;19;20078;-68
2022/01/18 22:48:04;;;;;;;27.98;8.80;;;;;;;3.63;97.38;103225.91;15278744;19;20019;-68
2022/01/18 22:53:05;;;;;;;27.13;9.75;;;;;;;3.57;97.54;103221.91;15280204;19;20031;-68
2022/01/18 22:58:07;;;;;;;31.63;9.05;;;;;;;3.51;97.71;103225.81;15279012;19;20018;-68
2022/01/18 23:03:09;;;;;;;28.67;8.82;;;;;;;3.64;97.50;103212.19;15277190;19;20361;-69
2022/01/18 23:08:11;;;;;;;31.88;9.73;;;;;;;3.64;96.98;103207.00;15278597;19;20369;-67
2022/01/18 23:13:16;;;;;;;30.33;9.63;;;;;;;3.56;97.70;103187.31;15275422;19;20033;-65
2022/01/18 23:18:18;;;;;;;27.55;9.65;;;;;;;3.52;98.07;103174.88;15276395;19;20487;-66
2022/01/18 23:23:20;;;;;;;29.80;9.85;;;;;;;3.57;98.21;103173.56;15276042;19;20031;-67
2022/01/18 23:28:21;;;;;;;29.58;9.13;;;;;;;3.51;98.09;103175.66;15275016;19;20098;-67
2022/01/18 23:33:23;;;;;;;32.80;10.52;;;;;;;3.49;97.91;103169.44;15276122;19;20018;-67
2022/01/18 23:38:33;;;;;;;33.40;11.18;;;;;;;3.50;97.83;103159.22;15276707;19;20377;-67
2022/01/18 23:43:34;;;;;;;42.30;10.33;;;;;;;3.46;98.02;103164.91;15273703;19;20018;-68
2022/01/18 23:48:37;;;;;;;32.20;10.75;;;;;;;3.38;98.05;103160.78;15271729;19;20034;-67
2022/01/18 23:53:39;;;;;;;35.35;11.25;;;;;;;3.39;97.98;103152.22;15273534;19;20015;-68
2022/01/18 23:58:42;;;;;;;31.42;10.82;;;;;;;3.42;97.86;103138.63;15271508;19;20020;-67
